ADDS METAR Data INFO
IDs: Format: Raw Decoded Include TAF

Data at: 1527 UTC 18 Jun 2018

KBQK 181515Z AUTO 20004KT 10SM SCT027 SCT034 SCT042 30/22 A3014 RMK AO2
KBQK 181455Z AUTO 23005KT 10SM SCT025 BKN032 BKN042 29/22 A3014 RMK AO2
KBQK 181435Z AUTO 19003KT 10SM SCT023 30/22 A3014 RMK AO2
KBQK 181415Z AUTO 23006KT 10SM CLR 30/22 A3014 RMK AO2
KBQK 181355Z AUTO 24003KT 10SM CLR 29/22 A3015 RMK AO2
KBQK 181335Z AUTO 21004KT 10SM CLR 28/22 A3015 RMK AO2
KBQK 181315Z AUTO 00000KT 10SM CLR 28/22 A3015 RMK AO2
KBQK 181255Z AUTO 20003KT 10SM CLR 28/23 A3015 RMK AO2
KBQK 181235Z AUTO 22003KT 10SM CLR 27/23 A3015 RMK AO2
KBQK 181215Z AUTO 23005KT 10SM CLR 26/23 A3015 RMK AO2
KBQK 181155Z AUTO 00000KT 10SM CLR 26/23 A3015 RMK AO2 LTG DSNT SE
KBQK 181135Z AUTO 00000KT 7SM VCTS CLR 24/23 A3014 RMK AO2 LTG DSNT SE
KBQK 181115Z AUTO 00000KT 1 1/4SM BR SCT002 23/22 A3014 RMK AO2
KBQK 181055Z AUTO 00000KT 1/4SM FG BKN002 22/21 A3014 RMK AO2 VIS M1/4V1 3/4
KBQK 181035Z AUTO 00000KT 3/4SM BR VV005 22/21 A3014 RMK AO2
KBQK 181015Z AUTO 00000KT 1/4SM FG VV002 23/22 A3014 RMK AO2
KBQK 180955Z AUTO 00000KT 5SM BR CLR 22/21 A3013 RMK AO2
KBQK 180935Z AUTO 00000KT 5SM BR CLR 23/22 A3013 RMK AO2
KBQK 180915Z AUTO 00000KT 2SM BR CLR 23/22 A3012 RMK AO2
KBQK 180855Z AUTO 00000KT 10SM CLR 23/21 A3011 RMK AO2
KBQK 180835Z AUTO 00000KT 4SM BR CLR 23/22 A3012 RMK AO2
KBQK 180815Z AUTO 00000KT 1/2SM FG VV005 23/21 A3011 RMK AO2
KBQK 180755Z AUTO 00000KT 4SM BR SCT002 22/21 A3011 RMK AO2
KBQK 180735Z AUTO 08003KT 1/2SM FG BKN002 22/21 A3011 RMK AO2
KBQK 180715Z AUTO 00000KT 1/2SM FG VV005 23/22 A3011 RMK AO2
KBQK 180655Z AUTO 00000KT 1/4SM FG VV002 23/22 A3011 RMK AO2
KBQK 180635Z AUTO 00000KT 7SM CLR 24/22 A3011 RMK AO2
KBQK 180615Z AUTO 00000KT 2 1/2SM BR CLR 23/22 A3012 RMK AO2
KBQK 180555Z AUTO 00000KT 7SM CLR 23/21 A3012 RMK AO2
KBQK 180535Z AUTO 00000KT 10SM CLR 23/22 A3012 RMK AO2
KBQK 180515Z AUTO 23003KT 7SM CLR 23/22 A3013 RMK AO2
KBQK 180455Z AUTO 00000KT 10SM CLR 23/22 A3013 RMK AO2
KBQK 180435Z AUTO 00000KT 7SM CLR 23/22 A3014 RMK AO2
KBQK 180415Z AUTO 00000KT 7SM CLR 23/22 A3014 RMK AO2
KBQK 180355Z AUTO 00000KT 10SM CLR 24/22 A3014 RMK AO2
KBQK 180335Z AUTO 00000KT 10SM CLR 24/22 A3015 RMK AO2
KBQK 180315Z AUTO 00000KT 10SM SCT120 26/22 A3014 RMK AO2
KBQK 180255Z AUTO 15003KT 10SM SCT120 26/22 A3014 RMK AO2
KBQK 180235Z AUTO 00000KT 10SM CLR 26/22 A3014 RMK AO2
KBQK 180215Z AUTO 08003KT 10SM CLR 25/22 A3013 RMK AO2
KBQK 180155Z AUTO 08004KT 10SM CLR 25/22 A3013 RMK AO2
KBQK 180135Z AUTO 07004KT 10SM CLR 25/22 A3012 RMK AO2
KBQK 180115Z AUTO 00000KT 10SM CLR 25/23 A3012 RMK AO2
KBQK 180055Z AUTO 15003KT 10SM CLR 27/22 A3012 RMK AO2
KBQK 180035Z AUTO 14003KT 10SM -RA SCT037 SCT060 BKN095 27/23 A3011 RMK AO2
KBQK 180015Z AUTO 13003KT 10SM -RA SCT075 BKN095 BKN120 27/22 A3011 RMK AO2
KBQK 172355Z AUTO 00000KT 10SM CLR 27/22 A3011 RMK AO2
KBQK 172335Z AUTO 00000KT 10SM CLR 28/22 A3010 RMK AO2 LTG DSNT NW
KBQK 172315Z AUTO 00000KT 10SM VCTS CLR 28/21 A3010 RMK AO2 LTG DSNT NW
KBQK 172255Z AUTO 13004KT 10SM SCT095 28/21 A3010 RMK AO2
KBQK 172235Z AUTO 14005KT 10SM SCT095 SCT120 29/21 A3010 RMK AO2 LTG DSNT W AND NW
KBQK 172215Z AUTO 13006KT 10SM VCTS SCT095 SCT120 29/21 A3010 RMK AO2 LTG DSNT W AND NW
KBQK 172155Z AUTO 14005KT 10SM SCT043 BKN095 OVC120 31/21 A3010 RMK AO2 LTG DSNT N AND NW
KBQK 172135Z AUTO 16006KT 10SM SCT040 SCT047 OVC095 30/21 A3011 RMK AO2 LTG DSNT W THRU NE
KBQK 172115Z AUTO 15007KT 10SM SCT040 BKN046 OVC110 30/21 A3011 RMK AO2 LTG DSNT W THRU N
KBQK 172055Z AUTO 15007KT 10SM TS SCT090 BKN110 31/21 A3011 RMK AO2 LTG DSNT W THRU N
KBQK 172035Z AUTO 00000KT 10SM SCT043 BKN075 OVC090 31/21 A3011 RMK AO2 LTG DSNT W THRU N
KBQK 172015Z AUTO 05004KT 10SM BKN041 BKN050 BKN065 31/21 A3011 RMK AO2 LTG DSNT N AND NW
KBQK 171955Z AUTO 00000KT 10SM BKN041 BKN050 31/20 A3011 RMK AO2 LTG DSNT W AND NW
KBQK 171935Z AUTO 07004KT 10SM SCT039 BKN050 31/21 A3011 RMK AO2 LTG DSNT N AND NW
KBQK 171915Z AUTO 08007KT 10SM SCT037 SCT046 SCT060 31/21 A3011 RMK AO2 LTG DSNT N AND NW
KBQK 171855Z AUTO 02004KT 10SM SCT035 BKN046 BKN060 31/21 A3013 RMK AO2 LTG DSNT NW
KBQK 171835Z AUTO 04005KT 10SM SCT035 31/21 A3013 RMK AO2 LTG DSNT NW
KBQK 171815Z AUTO 00000KT 10SM SCT030 31/22 A3013 RMK AO2 LTG DSNT NW
KBQK 171755Z AUTO 00000KT 5SM HZ CLR 30/22 A3014 RMK AO2 LTG DSNT NW
KBQK 171735Z AUTO 01005KT 10SM SCT036 SCT042 30/22 A3015 RMK AO2 LTG DSNT N AND NW
KBQK 171715Z AUTO 34004KT 10SM SCT027 30/22 A3016 RMK AO2
KBQK 171655Z AUTO 02005KT 10SM SCT027 29/22 A3016 RMK AO2 LTG DSNT NW
KBQK 171635Z AUTO 01006KT 10SM SCT027 30/22 A3016 RMK AO2 LTG DSNT NW
KBQK 171615Z AUTO 29005KT 10SM CLR 30/22 A3017 RMK AO2
KBQK 171555Z AUTO 33007KT 10SM CLR 28/22 A3018 RMK AO2
KBQK 171535Z AUTO 30005KT 10SM CLR 28/22 A3018 RMK AO2
KBQK 171515Z AUTO 32003KT 10SM CLR 28/22 A3018 RMK AO2
KBQK 171455Z AUTO 30005KT 10SM CLR 27/22 A3017 RMK AO2
KBQK 171435Z AUTO 29006KT 10SM CLR 27/22 A3016 RMK AO2
KBQK 171415Z AUTO 28005KT 10SM CLR 26/22 A3016 RMK AO2
KBQK 171355Z AUTO 27004KT 10SM SCT031 SCT039 SCT110 26/22 A3015 RMK AO2
KBQK 171335Z AUTO 27004KT 10SM SCT029 SCT040 SCT110 25/22 A3015 RMK AO2
KBQK 171315Z AUTO 29004KT 10SM CLR 25/22 A3015 RMK AO2
KBQK 171255Z AUTO 28004KT 10SM CLR 25/22 A3014 RMK AO2 LTG DSNT NW
KBQK 171235Z AUTO 26003KT 10SM CLR 25/22 A3013 RMK AO2 LTG DSNT NW
KBQK 171215Z AUTO 27004KT 10SM CLR 24/22 A3013 RMK AO2 LTG DSNT NW
KBQK 171155Z AUTO 27003KT 10SM CLR 24/22 A3012 RMK AO2
KBQK 171135Z AUTO 25005KT 10SM CLR 23/22 A3011 RMK AO2 LTG DSNT NW
KBQK 171115Z AUTO 25005KT 10SM CLR 23/22 A3011 RMK AO2
KBQK 171055Z AUTO 00000KT 10SM CLR 23/22 A3011 RMK AO2
KBQK 171035Z AUTO 23003KT 10SM CLR 23/21 A3011 RMK AO2
KBQK 171015Z AUTO 00000KT 10SM SCT060 22/21 A3011 RMK AO2
KBQK 170955Z AUTO 00000KT 10SM SCT060 22/21 A3010 RMK AO2
KBQK 170935Z AUTO 23003KT 10SM CLR 22/21 A3010 RMK AO2
KBQK 170915Z AUTO 00000KT 10SM CLR 22/21 A3009 RMK AO2
KBQK 170855Z AUTO 00000KT 10SM CLR 22/21 A3009 RMK AO2
KBQK 170835Z AUTO 00000KT 10SM CLR 23/21 A3008 RMK AO2
KBQK 170815Z AUTO 00000KT 10SM SCT110 23/21 A3008 RMK AO2
KBQK 170755Z AUTO 00000KT 10SM -RA SCT110 23/21 A3008 RMK AO2
KBQK 170735Z AUTO 25003KT 10SM CLR 23/21 A3008 RMK AO2
KBQK 170715Z AUTO 00000KT 10SM CLR 23/21 A3008 RMK AO2
KBQK 170655Z AUTO 00000KT 10SM CLR 22/21 A3008 RMK AO2
KBQK 170635Z AUTO 00000KT 10SM CLR 23/21 A3008 RMK AO2
KBQK 170615Z AUTO 00000KT 10SM CLR 23/21 A3008 RMK AO2
KBQK 170555Z AUTO 00000KT 10SM CLR 23/21 A3008 RMK AO2
KBQK 170535Z AUTO 00000KT 10SM CLR 23/21 A3008 RMK AO2
KBQK 170515Z AUTO 00000KT 10SM CLR 23/21 A3008 RMK AO2
KBQK 170455Z AUTO 00000KT 10SM SCT120 23/21 A3008 RMK AO2
KBQK 170435Z AUTO 26003KT 10SM SCT120 23/21 A3009 RMK AO2
KBQK 170415Z AUTO 00000KT 10SM -DZ SCT120 23/21 A3009 RMK AO2
KBQK 170355Z AUTO 29003KT 10SM DZ CLR 23/21 A3009 RMK AO2
KBQK 170335Z AUTO 26003KT 10SM -RA SCT100 23/21 A3009 RMK AO2